Time;durP1;ratioP1;P1;durP2;ratioP2;P2;SDS_P1;SDS_P2;PMS_P1;PMS_P2;Temp;Humidity;BMP_temperature;BMP_pressure;BME280_temperature;BME280_humidity;BME280_pressure;Samples;Min_cycle;Max_cycle;Signal;HPM_P1;HPM_P2
2021/06/20 00:00:40;;;;;;;36.25;26.00;;;17.10;99.90;;;;;;5077441;28;20039;-90
2021/06/20 00:03:06;;;;;;;34.03;24.50;;;17.00;99.90;;;;;;5077476;28;20028;-89
2021/06/20 00:05:35;;;;;;;36.75;26.30;;;17.10;99.90;;;;;;5077512;28;20436;-89
2021/06/20 00:08:04;;;;;;;31.90;24.35;;;17.20;99.90;;;;;;5078210;28;20025;-89
2021/06/20 00:10:30;;;;;;;33.28;23.83;;;17.20;99.90;;;;;;5077042;28;20078;-89
2021/06/20 00:12:57;;;;;;;31.10;24.20;;;17.20;99.90;;;;;;5077354;28;20016;-89
2021/06/20 00:15:25;;;;;;;33.85;25.05;;;17.20;99.90;;;;;;5077610;28;20417;-88
2021/06/20 00:17:52;;;;;;;33.42;25.17;;;17.30;99.90;;;;;;5076882;28;20028;-88
2021/06/20 00:20:19;;;;;;;34.75;25.92;;;17.20;99.90;;;;;;5075609;28;20397;-89
2021/06/20 00:22:46;;;;;;;33.95;26.40;;;17.20;99.90;;;;;;5077295;28;20025;-89
2021/06/20 00:25:13;;;;;;;34.95;27.10;;;17.20;99.90;;;;;;5077317;28;20028;-88
2021/06/20 00:27:39;;;;;;;37.60;27.77;;;17.20;99.90;;;;;;5076416;28;20052;-88
2021/06/20 00:30:08;;;;;;;36.35;28.35;;;17.20;99.90;;;;;;5076675;28;20021;-88
2021/06/20 00:32:34;;;;;;;34.97;27.33;;;17.20;99.90;;;;;;5059811;28;20029;-88
2021/06/20 00:34:59;;;;;;;36.80;27.88;;;17.20;99.90;;;;;;5076331;28;20054;-88
2021/06/20 00:37:25;;;;;;;36.35;27.98;;;17.20;99.90;;;;;;5076484;28;20012;-88
2021/06/20 00:39:51;;;;;;;40.38;29.65;;;17.30;99.90;;;;;;5076401;28;20058;-88
2021/06/20 00:42:16;;;;;;;37.35;28.20;;;17.40;99.90;;;;;;5076190;28;20749;-88
2021/06/20 00:44:47;;;;;;;36.55;27.17;;;17.50;99.90;;;;;;5076246;28;20474;-88
2021/06/20 00:47:13;;;;;;;36.95;26.65;;;17.50;99.90;;;;;;5076447;28;20456;-88
2021/06/20 00:49:39;;;;;;;38.42;28.08;;;17.50;99.90;;;;;;5076073;28;20024;-88
2021/06/20 00:52:05;;;;;;;41.33;29.30;;;17.50;99.90;;;;;;5079130;28;20046;-88
2021/06/20 00:54:31;;;;;;;37.00;27.23;;;17.60;99.90;;;;;;5077214;28;20028;-89
2021/06/20 00:56:57;;;;;;;36.83;27.95;;;17.60;99.90;;;;;;5076324;28;20028;-89
2021/06/20 00:59:23;;;;;;;40.88;30.25;;;17.50;99.90;;;;;;5076140;28;20024;-89
2021/06/20 01:01:48;;;;;;;41.97;30.88;;;17.50;99.90;;;;;;5076092;28;20075;-89
2021/06/20 01:04:14;;;;;;;43.47;31.92;;;17.70;99.90;;;;;;5076187;28;20115;-89
2021/06/20 01:06:40;;;;;;;39.45;29.63;;;17.60;99.90;;;;;;5077108;28;20028;-89
2021/06/20 01:09:05;;;;;;;37.80;29.20;;;17.70;99.90;;;;;;5076101;28;20031;-89
2021/06/20 01:11:32;;;;;;;42.63;30.88;;;17.70;99.90;;;;;;5075683;28;20031;-89
2021/06/20 01:13:58;;;;;;;37.70;28.65;;;17.80;99.90;;;;;;5075979;28;20159;-89
2021/06/20 01:16:26;;;;;;;38.20;28.63;;;17.70;99.90;;;;;;5075820;28;20028;-89
2021/06/20 01:18:52;;;;;;;48.33;32.75;;;17.80;99.90;;;;;;5076741;28;20165;-90
2021/06/20 01:21:18;;;;;;;45.70;32.25;;;18.00;99.90;;;;;;5075505;28;20048;-90
2021/06/20 01:23:43;;;;;;;42.40;30.58;;;18.00;99.90;;;;;;5076078;28;20107;-89
2021/06/20 01:26:09;;;;;;;41.33;30.90;;;17.90;99.90;;;;;;5075374;28;20127;-89
2021/06/20 01:28:48;;;;;;;44.83;30.77;;;17.70;99.90;;;;;;5075349;28;20066;-89
2021/06/20 01:31:14;;;;;;;41.28;30.88;;;17.80;99.90;;;;;;5074719;28;20020;-89
2021/06/20 01:33:40;;;;;;;43.28;30.40;;;17.70;99.90;;;;;;5075135;28;20065;-90
2021/06/20 01:36:06;;;;;;;40.08;30.30;;;17.60;99.90;;;;;;5075181;28;20024;-87
2021/06/20 01:38:32;;;;;;;37.85;28.65;;;17.50;99.90;;;;;;5074829;28;20031;-88
2021/06/20 01:40:58;;;;;;;40.88;29.40;;;17.40;99.90;;;;;;5074703;28;20029;-88
2021/06/20 01:43:24;;;;;;;43.08;30.25;;;17.40;99.90;;;;;;5075009;28;20024;-88
2021/06/20 01:45:49;;;;;;;43.13;31.70;;;17.30;99.90;;;;;;5075289;28;20058;-88
2021/06/20 01:48:15;;;;;;;44.20;31.70;;;17.30;99.90;;;;;;5075167;28;20020;-88
2021/06/20 01:50:41;;;;;;;41.95;32.00;;;17.40;99.90;;;;;;5075474;28;20427;-88
2021/06/20 01:53:13;;;;;;;41.60;30.98;;;17.30;99.90;;;;;;5075389;28;20120;-88
2021/06/20 01:55:40;;;;;;;43.75;31.38;;;17.30;99.90;;;;;;5077384;28;20021;-89
2021/06/20 01:58:08;;;;;;;40.30;31.80;;;17.30;99.90;;;;;;5075029;28;20029;-90
2021/06/20 02:00:35;;;;;;;46.47;32.40;;;17.20;99.90;;;;;;5075173;28;20027;-90
2021/06/20 02:03:28;;;;;;;46.28;33.63;;;17.30;99.90;;;;;;5075300;28;20029;-90
2021/06/20 02:05:58;;;;;;;42.90;32.42;;;17.30;99.90;;;;;;5074856;28;20035;-88
2021/06/20 02:08:25;;;;;;;44.38;31.70;;;17.20;99.90;;;;;;5075398;28;20025;-89
2021/06/20 02:10:53;;;;;;;48.17;34.85;;;17.20;99.90;;;;;;5078155;28;20008;-89
2021/06/20 02:13:23;;;;;;;46.10;32.92;;;17.30;99.90;;;;;;5076396;28;20028;-89
2021/06/20 02:15:49;;;;;;;45.92;34.63;;;17.30;99.90;;;;;;5075180;28;20054;-89
2021/06/20 02:18:15;;;;;;;48.20;33.53;;;17.20;99.90;;;;;;5073985;28;20032;-89
2021/06/20 02:20:41;;;;;;;51.20;35.50;;;17.20;99.90;;;;;;5074643;28;20024;-89
2021/06/20 02:23:07;;;;;;;45.83;33.70;;;17.20;99.90;;;;;;5073939;28;20062;-89
2021/06/20 02:25:33;;;;;;;50.45;34.20;;;17.20;99.90;;;;;;5074473;28;20039;-89
2021/06/20 02:27:59;;;;;;;52.03;35.20;;;17.20;99.90;;;;;;5075449;28;20033;-89
2021/06/20 02:30:25;;;;;;;51.60;35.60;;;17.20;99.90;;;;;;5074305;28;20031;-89
2021/06/20 02:32:53;;;;;;;49.75;34.95;;;17.20;99.90;;;;;;5075236;28;20052;-89
2021/06/20 02:35:20;;;;;;;44.95;33.00;;;17.20;99.90;;;;;;5074438;28;20029;-89
2021/06/20 02:37:47;;;;;;;48.63;35.15;;;17.20;99.90;;;;;;5075095;28;20107;-89
2021/06/20 02:40:14;;;;;;;48.88;34.10;;;17.20;99.90;;;;;;5074561;28;20029;-89
2021/06/20 02:42:40;;;;;;;49.58;35.95;;;17.20;99.90;;;;;;5074705;28;20385;-88
2021/06/20 02:45:08;;;;;;;50.08;32.85;;;17.20;99.90;;;;;;5074192;28;20032;-88
2021/06/20 02:47:34;;;;;;;53.92;36.13;;;17.20;99.90;;;;;;5074499;28;20078;-88
2021/06/20 02:50:00;;;;;;;54.88;38.22;;;17.20;99.90;;;;;;5075637;28;20027;-88
2021/06/20 02:52:26;;;;;;;56.63;37.75;;;17.20;99.90;;;;;;5074230;28;20024;-89
2021/06/20 02:54:52;;;;;;;55.92;38.97;;;17.20;99.90;;;;;;5075199;28;20029;-89
2021/06/20 02:57:22;;;;;;;56.15;38.55;;;17.20;99.90;;;;;;5074375;28;20027;-88
2021/06/20 02:59:49;;;;;;;56.25;39.55;;;17.20;99.90;;;;;;5073661;28;20025;-89
2021/06/20 03:02:16;;;;;;;58.80;38.42;;;17.30;99.90;;;;;;5073734;28;20064;-89
2021/06/20 03:04:43;;;;;;;57.60;39.80;;;17.30;99.90;;;;;;5073958;28;20500;-89
2021/06/20 03:07:09;;;;;;;62.00;41.55;;;17.30;99.90;;;;;;5074610;28;20047;-89
2021/06/20 03:09:37;;;;;;;57.20;39.05;;;17.30;99.90;;;;;;5074085;28;20111;-90
2021/06/20 03:12:05;;;;;;;68.00;43.90;;;17.20;99.90;;;;;;5074313;28;20052;-89
2021/06/20 03:14:32;;;;;;;73.10;45.35;;;17.20;99.90;;;;;;5074163;28;20119;-89
2021/06/20 03:16:57;;;;;;;69.45;44.70;;;17.20;99.90;;;;;;5074313;28;20052;-88
2021/06/20 03:19:23;;;;;;;75.75;46.47;;;17.20;99.90;;;;;;5074140;28;20020;-88
2021/06/20 03:21:50;;;;;;;75.13;47.33;;;17.30;99.90;;;;;;5073985;28;20020;-88
2021/06/20 03:24:16;;;;;;;78.00;47.38;;;17.40;99.90;;;;;;5073927;28;20369;-88
2021/06/20 03:26:42;;;;;;;74.68;46.13;;;17.40;99.90;;;;;;5074136;28;20111;-88
2021/06/20 03:29:07;;;;;;;77.38;47.45;;;17.40;99.90;;;;;;5074383;28;20117;-88
2021/06/20 03:31:33;;;;;;;79.78;47.80;;;17.40;99.90;;;;;;5075130;28;20070;-89
2021/06/20 03:34:00;;;;;;;83.90;48.40;;;17.50;99.90;;;;;;5075348;28;20021;-89
2021/06/20 03:36:28;;;;;;;76.22;46.95;;;17.60;99.90;;;;;;5057801;28;20098;-89
2021/06/20 03:38:54;;;;;;;76.60;47.55;;;17.50;99.90;;;;;;5074037;28;20033;-89
2021/06/20 03:41:20;;;;;;;78.18;47.03;;;17.40;99.90;;;;;;5073098;28;20472;-90
2021/06/20 03:43:46;;;;;;;83.07;50.10;;;17.40;99.90;;;;;;5073794;28;20039;-89
2021/06/20 03:46:11;;;;;;;90.53;52.88;;;17.30;99.90;;;;;;5073445;28;20036;-90
2021/06/20 03:48:38;;;;;;;91.93;51.53;;;17.30;99.90;;;;;;5073802;28;20117;-90
2021/06/20 03:51:05;;;;;;;86.60;50.75;;;17.30;99.90;;;;;;5073635;28;20064;-89
2021/06/20 03:53:30;;;;;;;83.55;48.72;;;17.30;99.90;;;;;;5073814;28;20389;-89
2021/06/20 03:55:57;;;;;;;85.07;50.92;;;17.30;99.90;;;;;;5077444;28;20021;-90
2021/06/20 03:58:23;;;;;;;90.18;50.30;;;17.20;99.90;;;;;;5077482;28;20040;-90
2021/06/20 04:00:49;;;;;;;98.40;52.05;;;17.20;99.90;;;;;;5077541;28;20088;-90
2021/06/20 04:03:14;;;;;;;96.70;52.28;;;17.10;99.90;;;;;;5078883;28;20029;-89
2021/06/20 04:05:40;;;;;;;94.22;52.10;;;17.10;99.90;;;;;;5077077;28;20054;-89
2021/06/20 04:08:06;;;;;;;95.13;53.38;;;17.10;99.90;;;;;;5078314;28;20020;-88
2021/06/20 04:10:33;;;;;;;92.55;53.45;;;17.20;99.90;;;;;;5076687;28;20150;-89
2021/06/20 04:12:59;;;;;;;92.57;51.58;;;17.20;99.90;;;;;;5078208;28;20043;-90
2021/06/20 04:15:26;;;;;;;92.10;50.42;;;17.20;99.90;;;;;;5077176;28;20008;-90
2021/06/20 04:17:51;;;;;;;94.13;52.85;;;17.10;99.90;;;;;;5077075;28;20116;-89
2021/06/20 04:20:17;;;;;;;96.47;54.45;;;17.10;99.90;;;;;;5077461;28;20040;-89
2021/06/20 04:22:44;;;;;;;99.03;52.60;;;17.20;99.90;;;;;;5076409;28;20060;-89
2021/06/20 04:25:15;;;;;;;88.93;49.60;;;17.20;99.90;;;;;;5078362;28;20451;-89
2021/06/20 04:27:45;;;;;;;85.88;47.55;;;17.20;99.90;;;;;;5076391;28;20059;-89
2021/06/20 04:30:13;;;;;;;91.63;49.67;;;17.20;99.90;;;;;;5076756;28;20034;-89
2021/06/20 04:32:40;;;;;;;85.68;49.33;;;17.30;99.90;;;;;;5077491;28;20358;-89
2021/06/20 04:35:06;;;;;;;85.45;49.25;;;17.40;99.90;;;;;;5077240;28;20089;-89
2021/06/20 04:37:32;;;;;;;76.55;46.20;;;17.40;99.90;;;;;;5077420;28;20036;-89
2021/06/20 04:39:58;;;;;;;78.80;47.00;;;17.60;99.90;;;;;;5078020;28;20071;-89
2021/06/20 04:42:32;;;;;;;79.63;47.15;;;17.50;99.90;;;;;;5077296;28;20033;-89
2021/06/20 04:44:58;;;;;;;85.10;46.42;;;17.30;99.90;;;;;;5077583;28;20135;-89
2021/06/20 04:47:26;;;;;;;79.55;46.67;;;17.40;99.90;;;;;;5078341;28;20027;-88
2021/06/20 04:49:52;;;;;;;76.05;45.05;;;17.30;99.90;;;;;;5077296;28;20108;-88
2021/06/20 04:52:18;;;;;;;77.60;45.90;;;17.30;99.90;;;;;;5078965;28;20120;-89
2021/06/20 04:54:51;;;;;;;77.60;45.33;;;17.50;99.90;;;;;;5077274;28;20029;-89
2021/06/20 04:57:27;;;;;;;72.78;42.65;;;17.60;99.90;;;;;;5076790;28;20120;-88
2021/06/20 05:00:01;;;;;;;73.75;45.33;;;17.70;99.90;;;;;;5078112;28;20032;-89
2021/06/20 05:02:26;;;;;;;67.20;43.20;;;17.70;99.90;;;;;;5076713;28;20028;-89
2021/06/20 05:04:52;;;;;;;66.50;41.03;;;17.70;99.90;;;;;;5076477;28;20382;-89
2021/06/20 05:07:19;;;;;;;68.40;42.80;;;17.70;99.90;;;;;;5076026;28;20099;-90
2021/06/20 05:09:45;;;;;;;75.00;44.30;;;17.60;99.90;;;;;;5076591;28;20028;-89
2021/06/20 05:12:13;;;;;;;69.72;43.10;;;17.60;99.90;;;;;;5076133;28;20027;-89
2021/06/20 05:14:44;;;;;;;73.93;43.60;;;17.70;99.90;;;;;;5075942;28;20020;-89
2021/06/20 05:17:11;;;;;;;65.45;40.45;;;17.70;99.90;;;;;;5076543;28;20509;-89
2021/06/20 05:19:37;;;;;;;69.18;41.63;;;17.60;99.90;;;;;;5077248;28;20027;-90
2021/06/20 05:22:03;;;;;;;67.32;41.58;;;17.60;99.90;;;;;;5076150;28;20416;-89
2021/06/20 05:24:29;;;;;;;67.10;42.80;;;17.60;99.90;;;;;;5076211;28;20024;-89
2021/06/20 05:26:55;;;;;;;66.80;42.22;;;17.60;99.90;;;;;;5076857;28;20106;-90
2021/06/20 05:29:20;;;;;;;71.88;40.58;;;17.70;99.90;;;;;;5076384;28;20032;-88
2021/06/20 05:31:47;;;;;;;62.47;39.95;;;17.80;99.90;;;;;;5076248;28;20021;-89
2021/06/20 05:34:13;;;;;;;60.83;37.85;;;18.00;99.90;;;;;;5076488;28;20024;-90
2021/06/20 05:36:38;;;;;;;59.25;37.83;;;18.00;99.90;;;;;;5075973;28;20020;-88
2021/06/20 05:39:04;;;;;;;55.05;37.03;;;18.30;99.90;;;;;;5076007;28;20020;-89
2021/06/20 05:41:30;;;;;;;56.60;36.50;;;18.30;99.90;;;;;;5076146;28;20423;-89
2021/06/20 05:43:56;;;;;;;56.58;35.47;;;18.40;99.90;;;;;;5076099;28;20051;-89
2021/06/20 05:46:22;;;;;;;52.13;33.10;;;18.30;99.90;;;;;;5075547;28;20025;-89
2021/06/20 05:48:48;;;;;;;52.10;31.80;;;18.30;99.90;;;;;;5075644;28;20028;-90
2021/06/20 05:51:14;;;;;;;55.50;34.83;;;18.20;99.90;;;;;;5075684;28;20021;-90
2021/06/20 05:53:40;;;;;;;50.00;35.08;;;18.20;99.90;;;;;;5074974;28;20497;-89
2021/06/20 05:56:05;;;;;;;50.95;34.72;;;18.30;99.90;;;;;;5075543;28;20480;-90
2021/06/20 05:58:31;;;;;;;50.72;34.60;;;18.20;99.90;;;;;;5075436;28;20039;-90
2021/06/20 06:00:57;;;;;;;48.50;32.78;;;18.30;99.90;;;;;;5076196;28;20032;-89
2021/06/20 06:03:23;;;;;;;49.38;33.33;;;18.40;99.90;;;;;;5075527;28;20055;-89
2021/06/20 06:05:48;;;;;;;48.15;33.28;;;18.40;99.90;;;;;;5075789;28;20024;-89
2021/06/20 06:08:14;;;;;;;47.92;32.00;;;18.50;99.90;;;;;;5076532;28;20082;-90
2021/06/20 06:10:41;;;;;;;43.70;31.30;;;18.50;99.90;;;;;;5077469;28;20428;-90
2021/06/20 06:13:06;;;;;;;43.42;28.98;;;18.70;99.90;;;;;;5076285;28;20046;-91
2021/06/20 06:15:32;;;;;;;44.55;30.75;;;18.70;99.90;;;;;;5075767;28;20036;-90
2021/06/20 06:17:59;;;;;;;41.72;28.45;;;18.60;99.90;;;;;;5078081;28;20044;-89
2021/06/20 06:20:25;;;;;;;44.75;30.60;;;18.50;99.90;;;;;;5078117;28;20020;-87
2021/06/20 06:22:51;;;;;;;44.15;30.10;;;18.60;99.90;;;;;;5077832;28;20595;-89
2021/06/20 06:25:18;;;;;;;45.88;30.40;;;18.70;99.90;;;;;;5077860;28;20024;-88
2021/06/20 06:27:44;;;;;;;38.28;25.10;;;18.90;99.90;;;;;;5076056;28;20040;-89
2021/06/20 06:30:11;;;;;;;41.50;27.77;;;18.80;99.90;;;;;;5078269;28;20035;-90
2021/06/20 06:32:43;;;;;;;41.22;27.88;;;18.60;99.90;;;;;;5079556;28;20156;-89
2021/06/20 06:35:09;;;;;;;39.67;25.35;;;18.70;99.90;;;;;;5078206;28;20031;-88
2021/06/20 06:37:38;;;;;;;33.28;24.92;;;18.80;99.90;;;;;;5079632;28;20128;-91
2021/06/20 06:40:05;;;;;;;25.92;17.88;;;19.30;99.90;;;;;;5077487;28;20021;-89
2021/06/20 06:42:30;;;;;;;20.80;14.90;;;20.30;99.90;;;;;;5079135;28;20040;-89
2021/06/20 06:44:57;;;;;;;19.42;13.77;;;20.40;99.90;;;;;;5080624;28;20029;-89
2021/06/20 06:47:23;;;;;;;16.38;12.45;;;20.40;99.90;;;;;;5062228;28;20027;-89
2021/06/20 06:49:49;;;;;;;13.85;11.77;;;21.00;99.90;;;;;;5076920;28;20025;-90
2021/06/20 06:52:15;;;;;;;15.85;11.00;;;21.10;99.90;;;;;;5077308;28;20540;-90
2021/06/20 06:54:50;;;;;;;15.60;10.32;;;20.80;99.90;;;;;;5076288;28;20027;-91
2021/06/20 06:57:20;;;;;;;14.00;10.50;;;20.10;99.90;;;;;;5077150;28;20409;-91
2021/06/20 06:59:46;;;;;;;13.38;10.77;;;19.70;99.90;;;;;;5076013;28;20021;-89
2021/06/20 07:02:11;;;;;;;13.30;10.43;;;19.70;99.90;;;;;;5075277;28;20623;-89
2021/06/20 07:04:37;;;;;;;13.43;10.32;;;20.10;99.90;;;;;;5076294;28;20044;-91
2021/06/20 07:07:08;;;;;;;12.48;9.70;;;20.60;99.90;;;;;;5077031;28;20020;-89
2021/06/20 07:09:34;;;;;;;11.52;9.60;;;21.00;99.90;;;;;;5074911;28;20392;-90
2021/06/20 07:12:01;;;;;;;11.43;8.45;;;21.00;99.90;;;;;;5075714;28;20016;-90
2021/06/20 07:14:27;;;;;;;9.38;8.30;;;21.30;99.90;;;;;;5074539;28;20028;-89
2021/06/20 07:16:52;;;;;;;9.50;7.45;;;22.20;99.90;;;;;;5075500;28;20024;-89
2021/06/20 07:19:18;;;;;;;9.73;7.25;;;22.70;99.90;;;;;;5077521;28;20028;-89
2021/06/20 07:21:44;;;;;;;6.63;5.88;;;22.00;99.90;;;;;;5074872;28;20028;-89
2021/06/20 07:24:10;;;;;;;7.78;6.15;;;21.60;99.90;;;;;;5073911;28;20028;-89
2021/06/20 07:26:36;;;;;;;7.32;5.45;;;21.30;99.90;;;;;;5074267;28;20053;-88
2021/06/20 07:29:02;;;;;;;4.65;4.25;;;21.40;99.90;;;;;;5076318;28;20086;-88
2021/06/20 07:31:28;;;;;;;6.13;3.67;;;21.60;99.90;;;;;;5078500;28;20052;-88
2021/06/20 07:33:54;;;;;;;4.22;2.92;;;22.20;99.90;;;;;;5078088;28;20029;-88
2021/06/20 07:36:20;;;;;;;3.33;3.00;;;22.70;99.90;;;;;;5078256;28;20035;-88
2021/06/20 07:38:47;;;;;;;3.13;2.83;;;23.30;99.90;;;;;;5078062;28;20086;-88
2021/06/20 07:41:13;;;;;;;3.72;2.70;;;23.60;99.90;;;;;;5078234;28;20427;-88
2021/06/20 07:43:39;;;;;;;4.57;2.35;;;23.60;99.90;;;;;;5077889;28;20081;-88
2021/06/20 07:46:05;;;;;;;5.97;2.22;;;24.00;99.90;;;;;;5077905;28;20024;-88
2021/06/20 07:48:31;;;;;;;3.95;2.40;;;24.70;99.90;;;;;;5078147;28;20449;-88
2021/06/20 07:50:57;;;;;;;3.42;1.98;;;24.80;99.90;;;;;;5077794;28;20021;-88
2021/06/20 07:53:22;;;;;;;3.88;1.70;;;25.10;99.90;;;;;;5077538;28;20031;-88
2021/06/20 07:55:49;;;;;;;3.20;2.00;;;24.30;99.90;;;;;;5077741;28;20078;-89
2021/06/20 07:58:15;;;;;;;4.25;1.50;;;23.40;99.90;;;;;;5076321;28;20439;-88
2021/06/20 08:00:41;;;;;;;2.33;1.90;;;22.30;99.90;;;;;;5076522;28;20040;-89
2021/06/20 08:03:07;;;;;;;2.40;1.70;;;21.60;99.90;;;;;;5076211;28;20115;-89
2021/06/20 08:05:33;;;;;;;2.22;1.75;;;21.70;99.90;;;;;;5076914;28;20044;-88
2021/06/20 08:07:59;;;;;;;2.50;1.50;;;22.20;99.90;;;;;;5077140;28;20025;-89
2021/06/20 08:10:25;;;;;;;2.53;1.50;;;22.60;99.90;;;;;;5076733;28;20035;-88
2021/06/20 08:12:50;;;;;;;3.90;1.27;;;22.60;99.90;;;;;;5076520;28;20031;-88
2021/06/20 08:15:16;;;;;;;2.70;1.27;;;22.90;99.90;;;;;;5076744;28;20032;-88
2021/06/20 08:17:42;;;;;;;3.15;1.30;;;23.20;99.90;;;;;;5076899;28;20035;-88
2021/06/20 08:20:10;;;;;;;5.00;1.20;;;22.60;99.90;;;;;;5076631;28;20039;-89
2021/06/20 08:22:38;;;;;;;1.20;1.10;;;22.10;99.90;;;;;;5076805;28;20037;-89
2021/06/20 08:25:06;;;;;;;1.90;1.10;;;22.60;99.90;;;;;;5076461;28;20074;-89
2021/06/20 08:27:31;;;;;;;1.25;0.95;;;23.30;99.90;;;;;;5075980;28;20041;-88
2021/06/20 08:29:57;;;;;;;2.13;1.20;;;22.80;99.90;;;;;;5077634;28;20028;-89
2021/06/20 08:32:24;;;;;;;1.85;1.10;;;22.40;99.90;;;;;;5059497;28;20119;-89
2021/06/20 08:34:51;;;;;;;1.42;1.00;;;22.30;99.90;;;;;;5076299;28;20070;-89
2021/06/20 08:37:17;;;;;;;2.67;1.25;;;22.20;99.90;;;;;;5076314;28;20025;-89
2021/06/20 08:39:43;;;;;;;3.72;1.27;;;21.70;99.90;;;;;;5075307;28;20027;-89
2021/06/20 08:42:09;;;;;;;4.32;1.30;;;21.90;99.90;;;;;;5075543;28;20064;-89
2021/06/20 08:44:34;;;;;;;1.00;0.90;;;22.30;99.90;;;;;;5075450;28;20028;-89
2021/06/20 08:47:02;;;;;;;3.22;1.38;;;22.40;99.90;;;;;;5076783;28;20016;-89
2021/06/20 08:49:29;;;;;;;2.15;1.13;;;22.10;99.90;;;;;;5075481;28;20114;-89
2021/06/20 08:51:56;;;;;;;2.60;1.17;;;22.10;99.90;;;;;;5076060;28;20549;-89
2021/06/20 08:54:22;;;;;;;1.10;1.00;;;23.10;99.90;;;;;;5076211;28;20021;-89
2021/06/20 08:56:51;;;;;;;2.72;1.20;;;23.30;99.90;;;;;;5076251;28;20131;-89
2021/06/20 08:59:19;;;;;;;1.48;1.15;;;23.10;99.90;;;;;;5076291;28;20036;-89
2021/06/20 09:01:44;;;;;;;2.92;1.10;;;23.10;99.90;;;;;;5078322;28;20025;-89
2021/06/20 09:04:10;;;;;;;3.45;1.73;;;23.20;99.90;;;;;;5076612;28;20074;-88
2021/06/20 09:06:36;;;;;;;2.47;1.20;;;22.60;99.90;;;;;;5075793;28;20031;-89
2021/06/20 09:09:09;;;;;;;2.25;1.00;;;22.50;99.90;;;;;;5076268;28;20477;-88
2021/06/20 09:11:40;;;;;;;2.67;1.20;;;22.80;99.90;;;;;;5075911;28;20059;-89
2021/06/20 09:14:15;;;;;;;1.80;1.10;;;23.60;99.90;;;;;;5075992;28;20078;-89
2021/06/20 09:16:52;;;;;;;1.33;0.93;;;24.10;99.90;;;;;;5075833;28;20032;-89
2021/06/20 09:19:30;;;;;;;3.22;0.90;;;24.20;99.90;;;;;;5075518;28;20412;-88
2021/06/20 09:21:57;;;;;;;3.03;0.80;;;24.80;99.90;;;;;;5075854;28;20024;-89
2021/06/20 09:24:23;;;;;;;1.75;0.93;;;24.80;99.90;;;;;;5075263;28;20033;-89
2021/06/20 09:26:54;;;;;;;1.15;0.90;;;23.70;99.90;;;;;;5074892;28;20041;-89
2021/06/20 09:29:32;;;;;;;1.03;0.73;;;23.10;99.90;;;;;;5076488;28;20042;-88
2021/06/20 09:31:59;;;;;;;1.77;0.80;;;22.50;99.90;;;;;;5075078;28;20028;-88
2021/06/20 09:34:25;;;;;;;3.47;0.70;;;23.00;99.90;;;;;;5075117;28;20182;-88
2021/06/20 09:37:04;;;;;;;1.38;0.80;;;23.00;99.90;;;;;;5075606;28;20742;-89
2021/06/20 09:39:30;;;;;;;2.70;0.73;;;23.00;99.90;;;;;;5074733;28;20021;-88
2021/06/20 09:42:04;;;;;;;3.10;0.70;;;23.80;99.90;;;;;;5074086;28;20093;-88
2021/06/20 09:44:42;;;;;;;1.92;0.85;;;24.60;99.90;;;;;;5074188;28;20115;-88
2021/06/20 09:47:13;;;;;;;2.83;1.20;;;25.70;99.90;;;;;;5074363;28;20568;-88
2021/06/20 09:49:40;;;;;;;1.48;0.80;;;26.00;99.90;;;;;;5075274;28;20012;-89
2021/06/20 09:52:07;;;;;;;0.82;0.50;;;26.00;99.90;;;;;;5073812;28;20119;-88
2021/06/20 09:54:36;;;;;;;1.65;0.75;;;25.70;99.90;;;;;;5074654;28;20025;-88
2021/06/20 09:57:02;;;;;;;2.05;0.80;;;25.60;99.90;;;;;;5074689;28;20031;-88
2021/06/20 09:59:31;;;;;;;0.80;0.63;;;25.50;99.90;;;;;;5074532;28;20037;-88
2021/06/20 10:02:11;;;;;;;0.70;0.50;;;24.90;99.90;;;;;;5074552;28;20039;-88
2021/06/20 10:04:40;;;;;;;1.85;0.45;;;25.30;99.90;;;;;;5075722;28;20047;-88
2021/06/20 10:07:06;;;;;;;2.22;0.70;;;26.20;99.90;;;;;;5074458;28;20020;-88
2021/06/20 10:09:34;;;;;;;1.75;0.70;;;26.30;99.90;;;;;;5074381;28;20025;-88
2021/06/20 10:12:00;;;;;;;2.28;0.57;;;26.80;99.90;;;;;;5075400;28;20028;-88
2021/06/20 10:14:27;;;;;;;3.40;0.98;;;26.40;99.90;;;;;;5075642;28;20094;-89
2021/06/20 10:16:58;;;;;;;0.68;0.50;;;27.10;99.90;;;;;;5074296;28;20021;-89
2021/06/20 10:19:26;;;;;;;0.90;0.70;;;26.50;99.90;;;;;;5074322;28;20036;-89
2021/06/20 10:22:07;;;;;;;0.77;0.60;;;25.80;99.90;;;;;;5074040;28;20035;-89
2021/06/20 10:24:52;;;;;;;3.33;0.63;;;25.30;99.90;;;;;;5075031;28;20055;-89
2021/06/20 10:27:41;;;;;;;1.05;0.50;;;25.70;99.90;;;;;;5075411;28;20101;-89
2021/06/20 10:30:21;;;;;;;2.05;0.47;;;26.20;99.90;;;;;;5074102;28;20052;-88
2021/06/20 10:32:50;;;;;;;1.98;0.65;;;26.00;99.90;;;;;;5074296;28;20024;-88
2021/06/20 10:35:21;;;;;;;2.35;0.50;;;26.20;99.00;;;;;;5075202;28;20027;-88
2021/06/20 10:37:51;;;;;;;0.50;0.40;;;25.60;99.80;;;;;;5074495;28;20055;-88
2021/06/20 10:40:21;;;;;;;1.05;0.63;;;25.90;99.10;;;;;;5075298;28;20473;-88
2021/06/20 10:42:49;;;;;;;1.17;0.43;;;25.20;99.90;;;;;;5074119;28;20025;-89
2021/06/20 10:45:33;;;;;;;1.25;0.65;;;25.20;99.90;;;;;;5074022;28;20105;-89
2021/06/20 10:48:10;;;;;;;1.48;0.60;;;25.60;99.50;;;;;;5073914;28;20021;-88
2021/06/20 10:50:38;;;;;;;1.40;0.75;;;25.90;99.90;;;;;;5073975;28;20025;-89
2021/06/20 10:53:04;;;;;;;1.75;0.57;;;26.40;98.90;;;;;;5073834;28;20025;-88
2021/06/20 10:55:53;;;;;;;1.20;0.57;;;26.60;97.40;;;;;;5073874;28;20119;-88
2021/06/20 10:58:47;;;;;;;1.77;0.70;;;26.90;97.40;;;;;;5073609;28;20033;-89
2021/06/20 11:01:14;;;;;;;0.88;0.63;;;27.30;96.40;;;;;;5073922;28;20035;-88
2021/06/20 11:03:59;;;;;;;1.02;0.55;;;26.00;98.30;;;;;;5072944;28;20027;-89
2021/06/20 11:06:26;;;;;;;1.88;0.75;;;25.30;99.90;;;;;;5073378;28;20435;-88
2021/06/20 11:09:08;;;;;;;1.38;0.90;;;24.90;99.90;;;;;;5073877;28;20020;-88
2021/06/20 11:11:51;;;;;;;0.82;0.82;;;24.80;99.90;;;;;;5073787;28;20078;-89
2021/06/20 11:14:19;;;;;;;3.05;0.80;;;24.70;99.90;;;;;;5073666;28;20025;-89
2021/06/20 11:16:49;;;;;;;6.63;1.33;;;25.10;99.90;;;;;;5073705;28;20116;-89
2021/06/20 11:19:26;;;;;;;1.50;0.88;;;25.70;99.90;;;;;;5073643;28;20024;-89
2021/06/20 11:22:05;;;;;;;2.00;0.80;;;26.00;99.80;;;;;;5073612;28;20078;-89
2021/06/20 11:24:39;;;;;;;0.70;0.70;;;27.20;97.90;;;;;;5074762;28;20048;-89
2021/06/20 11:27:14;;;;;;;1.50;0.73;;;27.50;96.40;;;;;;5073450;28;20041;-88
2021/06/20 11:29:45;;;;;;;0.60;0.60;;;27.60;96.70;;;;;;5073452;28;20024;-88
2021/06/20 11:32:25;;;;;;;0.93;0.73;;;27.30;96.70;;;;;;5073600;28;20074;-89
2021/06/20 11:34:57;;;;;;;1.40;0.60;;;27.10;95.90;;;;;;5074523;28;20024;-88
2021/06/20 11:37:30;;;;;;;2.00;0.80;;;27.50;95.90;;;;;;5073536;28;20024;-88
2021/06/20 11:40:17;;;;;;;1.05;1.00;;;27.00;95.40;;;;;;5073520;28;20028;-88
2021/06/20 11:42:48;;;;;;;1.40;0.98;;;26.30;96.70;;;;;;5072849;28;20025;-88
2021/06/20 11:45:29;;;;;;;1.73;0.98;;;27.10;95.90;;;;;;5074657;28;20029;-88
2021/06/20 11:48:02;;;;;;;3.75;1.00;;;28.00;94.10;;;;;;5074638;28;20096;-89
2021/06/20 11:50:30;;;;;;;3.08;1.48;;;28.70;94.00;;;;;;5073829;28;20488;-88
2021/06/20 11:53:02;;;;;;;1.85;1.20;;;28.40;94.60;;;;;;5074488;28;20042;-88
2021/06/20 11:55:30;;;;;;;2.33;1.50;;;28.00;95.00;;;;;;5073310;28;20035;-89
2021/06/20 11:58:02;;;;;;;2.40;1.20;;;27.90;93.80;;;;;;5073293;28;20032;-89
2021/06/20 12:00:27;;;;;;;1.45;1.08;;;28.80;93.10;;;;;;5074554;28;20052;-89
2021/06/20 12:03:05;;;;;;;1.65;1.45;;;29.40;91.50;;;;;;5073470;28;20051;-88
2021/06/20 12:05:33;;;;;;;3.40;1.30;;;28.40;92.90;;;;;;5073261;28;20051;-89
2021/06/20 12:08:03;;;;;;;1.33;1.00;;;29.50;90.70;;;;;;5073119;28;20044;-89
2021/06/20 12:10:31;;;;;;;1.00;1.00;;;29.20;89.70;;;;;;5073192;28;20054;-89
2021/06/20 12:12:59;;;;;;;2.83;1.10;;;28.80;89.00;;;;;;5072994;28;20028;-89
2021/06/20 12:15:25;;;;;;;1.45;1.20;;;28.40;87.60;;;;;;5074920;28;20038;-89
2021/06/20 12:17:52;;;;;;;1.02;0.98;;;28.40;90.30;;;;;;5060008;28;20101;-88
2021/06/20 12:20:29;;;;;;;1.45;1.35;;;29.20;90.00;;;;;;5076347;28;20031;-89
2021/06/20 12:22:55;;;;;;;1.30;1.20;;;28.90;91.10;;;;;;5078153;28;20099;-88
2021/06/20 12:25:20;;;;;;;1.98;1.20;;;29.90;90.50;;;;;;5080359;28;20116;-87
2021/06/20 12:27:46;;;;;;;1.23;1.13;;;29.80;88.10;;;;;;5078027;28;20515;-87
2021/06/20 12:30:16;;;;;;;3.17;1.33;;;29.20;88.20;;;;;;5077267;28;20092;-87
2021/06/20 12:32:42;;;;;;;1.23;1.05;;;29.00;89.60;;;;;;5076248;28;20120;-87
2021/06/20 12:35:08;;;;;;;1.58;1.30;;;28.80;90.20;;;;;;5075727;28;20120;-87
2021/06/20 12:37:39;;;;;;;4.03;0.98;;;29.50;89.60;;;;;;5077155;28;20016;-87
2021/06/20 12:40:13;;;;;;;1.20;1.00;;;30.10;89.10;;;;;;5076195;28;20452;-87